Time;durP1;ratioP1;P1;durP2;ratioP2;P2;SDS_P1;SDS_P2;PMS_P1;PMS_P2;Temp;Humidity;BMP_temperature;BMP_pressure;BME280_temperature;BME280_humidity;BME280_pressure;Samples;Min_cycle;Max_cycle;Signal;HPM_P1;HPM_P2
2022/06/08 00:01:37;;;;;;;4.97;4.30;;;;;;;13.24;72.32;93115.19;5112890;28;20027;-38
2022/06/08 00:04:03;;;;;;;11.25;5.30;;;;;;;13.18;72.58;93114.72;5113058;28;20164;-38
2022/06/08 00:06:29;;;;;;;4.60;3.63;;;;;;;13.09;72.44;93111.84;5111777;28;20096;-39
2022/06/08 00:08:54;;;;;;;5.85;3.53;;;;;;;13.03;72.48;93119.66;5110847;28;20110;-39
2022/06/08 00:11:20;;;;;;;4.53;3.50;;;;;;;13.06;72.39;93110.25;5092504;28;20093;-37
2022/06/08 00:13:45;;;;;;;4.45;4.05;;;;;;;12.87;72.76;93106.00;5103430;28;20505;-38
2022/06/08 00:16:13;;;;;;;4.97;4.38;;;;;;;13.03;72.79;93097.50;5112560;28;20016;-38
2022/06/08 00:18:40;;;;;;;15.07;4.93;;;;;;;13.03;73.13;93101.00;5112489;28;20050;-38
2022/06/08 00:21:07;;;;;;;6.60;4.28;;;;;;;13.08;72.57;93108.34;5112809;28;20488;-38
2022/06/08 00:23:32;;;;;;;4.85;4.15;;;;;;;13.03;72.44;93106.56;5112374;28;20062;-38
2022/06/08 00:25:57;;;;;;;11.70;4.40;;;;;;;12.83;72.87;93099.41;5112686;27;20061;-38
2022/06/08 00:28:23;;;;;;;4.43;4.03;;;;;;;12.73;72.78;93106.91;5112219;28;20474;-37
2022/06/08 00:30:49;;;;;;;6.97;3.80;;;;;;;12.79;72.13;93093.53;5112301;28;20110;-38
2022/06/08 00:33:14;;;;;;;6.15;4.07;;;;;;;12.74;72.27;93100.06;5112280;28;20057;-38
2022/06/08 00:35:40;;;;;;;4.35;3.75;;;;;;;12.76;72.63;93097.44;5112477;28;20023;-38
2022/06/08 00:38:05;;;;;;;4.60;4.20;;;;;;;12.79;72.51;93093.53;5112236;28;20028;-38
2022/06/08 00:40:42;;;;;;;5.35;3.83;;;;;;;12.81;73.04;93096.47;5112064;28;20034;-38
2022/06/08 00:43:08;;;;;;;3.70;3.38;;;;;;;12.74;72.72;93086.19;5112126;28;20152;-38
2022/06/08 00:45:33;;;;;;;6.50;3.70;;;;;;;12.75;72.19;93084.91;5111942;28;20106;-37
2022/06/08 00:48:03;;;;;;;7.22;3.47;;;;;;;12.72;72.25;93094.34;5111983;28;20036;-37
2022/06/08 00:50:30;;;;;;;5.88;3.65;;;;;;;12.72;73.18;93083.28;5111979;28;20229;-37
2022/06/08 00:52:56;;;;;;;5.13;3.67;;;;;;;12.72;73.15;93080.50;5111963;27;20563;-38
2022/06/08 00:55:24;;;;;;;6.88;4.72;;;;;;;12.67;73.71;93078.72;5111778;28;20015;-37
2022/06/08 00:57:52;;;;;;;4.72;4.03;;;;;;;12.61;74.00;93076.19;5110638;28;20027;-38
2022/06/08 01:00:23;;;;;;;6.90;4.55;;;;;;;12.55;73.96;93077.75;5110831;28;20024;-37
2022/06/08 01:02:48;;;;;;;8.38;5.45;;;;;;;12.34;74.45;93080.19;5111818;28;20096;-38
2022/06/08 01:05:24;;;;;;;6.40;4.90;;;;;;;12.49;74.59;93088.34;5108726;28;20107;-37
2022/06/08 01:07:52;;;;;;;3.85;3.55;;;;;;;12.18;74.70;93085.88;5091266;28;20032;-38
2022/06/08 01:10:22;;;;;;;8.43;4.50;;;;;;;12.03;75.24;93066.66;5090525;28;20028;-38
2022/06/08 01:12:48;;;;;;;3.38;3.15;;;;;;;12.20;74.48;93079.75;5093051;28;20421;-38
2022/06/08 01:15:18;;;;;;;7.20;3.85;;;;;;;12.37;73.93;93084.56;5111417;28;20027;-38
2022/06/08 01:17:43;;;;;;;5.80;4.00;;;;;;;12.39;73.58;93077.16;5111409;28;20478;-38
2022/06/08 01:20:10;;;;;;;5.22;4.10;;;;;;;12.28;73.27;93076.94;5111713;28;20035;-38
2022/06/08 01:22:36;;;;;;;4.10;3.70;;;;;;;12.12;73.04;93063.25;5111232;28;20484;-38
2022/06/08 01:25:01;;;;;;;5.45;3.03;;;;;;;12.30;72.57;93088.16;5111114;28;20023;-38
2022/06/08 01:27:53;;;;;;;6.88;3.40;;;;;;;12.27;72.77;93083.75;5111505;28;20116;-38
2022/06/08 01:30:24;;;;;;;5.95;3.70;;;;;;;12.19;73.08;93072.78;5106139;28;20035;-37
2022/06/08 01:33:20;;;;;;;3.95;3.65;;;;;;;12.12;73.91;93082.63;5109957;28;20031;-37
2022/06/08 01:36:04;;;;;;;5.03;4.22;;;;;;;12.08;74.21;93070.47;5111477;28;20023;-37
2022/06/08 01:38:40;;;;;;;5.93;4.03;;;;;;;12.02;74.19;93070.69;5111358;28;20042;-38
2022/06/08 01:41:41;;;;;;;8.32;4.35;;;;;;;11.85;74.52;93067.16;5110188;28;20031;-37
2022/06/08 01:47:42;;;;;;;3.88;3.58;;;;;;;11.85;73.60;93062.38;5098609;28;20047;-38
2022/06/08 01:50:20;;;;;;;4.43;3.45;;;;;;;11.90;73.03;93057.91;5111270;28;20020;-38
2022/06/08 01:52:59;;;;;;;4.00;3.70;;;;;;;11.91;72.88;93057.34;5109741;28;20063;-38
2022/06/08 01:55:28;;;;;;;;;;;;;;;11.69;73.25;93061.03;5110271;28;20024;-38
2022/06/08 01:58:12;;;;;;;3.73;3.37;;;;;;;11.62;74.15;93064.56;5111098;28;20024;-37
2022/06/08 02:00:45;;;;;;;9.73;6.68;;;;;;;11.67;73.78;93069.19;5109898;28;20027;-37
2022/06/08 02:03:26;;;;;;;5.65;5.07;;;;;;;11.77;73.78;93066.50;5092519;28;20084;-37
2022/06/08 02:06:06;;;;;;;7.05;4.60;;;;;;;11.67;73.45;93049.06;5089036;28;20065;-38
2022/06/08 02:08:56;;;;;;;7.38;4.93;;;;;;;11.62;74.29;93052.78;5089463;28;20103;-38
2022/06/08 02:11:43;;;;;;;7.50;5.05;;;;;;;11.63;73.96;93048.72;5089348;28;20020;-37
2022/06/08 02:14:33;;;;;;;7.28;5.30;;;;;;;11.59;74.14;93051.88;5103827;28;20247;-38
2022/06/08 02:17:04;;;;;;;9.48;4.90;;;;;;;11.61;73.89;93045.78;5109737;28;20050;-37
2022/06/08 02:19:44;;;;;;;6.28;4.53;;;;;;;11.65;73.65;93052.38;5110437;28;20130;-37
2022/06/08 02:22:24;;;;;;;10.30;4.68;;;;;;;11.54;74.53;93041.78;5113737;28;20509;-38
2022/06/08 02:25:02;;;;;;;7.22;4.47;;;;;;;11.39;74.80;93048.13;5113501;28;20020;-38
2022/06/08 02:27:55;;;;;;;8.52;4.35;;;;;;;11.51;75.43;93040.13;5115037;28;20035;-37
2022/06/08 02:30:24;;;;;;;4.90;4.35;;;;;;;11.55;74.59;93043.22;5114204;28;20120;-38
2022/06/08 02:35:44;;;;;;;12.15;5.47;;;;;;;11.52;75.41;93041.59;5113906;28;20062;-38
2022/06/08 02:38:13;;;;;;;7.82;5.00;;;;;;;11.44;74.88;93041.66;5113326;28;20055;-37
2022/06/08 02:40:43;;;;;;;8.43;5.78;;;;;;;11.39;75.51;93044.66;5113640;28;20024;-38
2022/06/08 02:43:17;;;;;;;9.63;6.47;;;;;;;11.45;76.18;93039.63;5113294;28;20024;-38
2022/06/08 02:45:44;;;;;;;12.07;5.95;;;;;;;11.52;75.58;93049.88;5113445;28;20051;-37
2022/06/08 02:48:13;;;;;;;27.88;6.05;;;;;;;11.47;75.40;93056.38;5114582;27;20050;-38
2022/06/08 02:50:51;;;;;;;7.63;4.88;;;;;;;11.44;74.69;93057.50;5114687;28;20031;-38
2022/06/08 02:53:16;;;;;;;10.43;5.28;;;;;;;11.40;74.54;93062.69;5114520;28;20103;-38
2022/06/08 02:55:55;;;;;;;10.90;5.50;;;;;;;11.26;74.91;93059.47;5114460;28;20106;-38
2022/06/08 02:58:29;;;;;;;13.53;5.70;;;;;;;11.29;75.38;93057.59;5105265;28;20445;-38
2022/06/08 03:00:58;;;;;;;9.00;5.15;;;;;;;11.27;75.75;93063.72;5092502;28;20622;-38
2022/06/08 03:03:31;;;;;;;11.98;5.43;;;;;;;11.29;76.50;93060.38;5093624;28;20024;-38
2022/06/08 03:06:21;;;;;;;14.27;4.82;;;;;;;11.33;75.00;93060.72;5092755;28;20012;-38
2022/06/08 03:08:58;;;;;;;8.05;4.70;;;;;;;11.22;74.81;93061.88;5093946;28;20040;-38
2022/06/08 03:11:26;;;;;;;5.93;4.35;;;;;;;11.29;74.96;93061.13;5092563;28;20059;-38
2022/06/08 03:13:56;;;;;;;19.50;5.97;;;;;;;11.15;75.30;93061.94;5092238;28;20051;-38
2022/06/08 03:16:30;;;;;;;5.55;4.80;;;;;;;11.28;75.12;93056.88;5093693;28;20023;-38
2022/06/08 03:18:55;;;;;;;4.97;4.47;;;;;;;11.22;75.15;93053.59;5093224;28;20040;-38
2022/06/08 03:21:22;;;;;;;6.75;4.57;;;;;;;11.13;76.10;93056.25;5093594;28;20051;-38
2022/06/08 03:23:49;;;;;;;7.55;5.05;;;;;;;11.16;76.66;93052.34;5093304;28;20035;-38
2022/06/08 03:26:16;;;;;;;5.57;4.57;;;;;;;11.21;75.69;93068.00;5093392;28;20054;-38
2022/06/08 03:28:41;;;;;;;10.30;6.22;;;;;;;11.24;75.56;93072.41;5093442;28;20031;-38
2022/06/08 03:31:07;;;;;;;8.73;5.70;;;;;;;11.24;75.21;93075.16;5093408;28;20012;-38
2022/06/08 03:33:32;;;;;;;6.75;5.65;;;;;;;11.24;76.12;93075.16;5092598;28;20027;-38
2022/06/08 03:35:58;;;;;;;11.90;6.90;;;;;;;11.21;76.33;93076.28;5093080;28;20042;-38
2022/06/08 03:38:23;;;;;;;6.50;5.43;;;;;;;11.35;75.78;93089.25;5092917;28;20024;-38
2022/06/08 03:40:49;;;;;;;8.23;5.90;;;;;;;11.37;75.67;93085.94;5092944;28;20031;-38
2022/06/08 03:43:14;;;;;;;6.05;5.45;;;;;;;11.28;76.58;93094.84;5093081;28;20020;-38
2022/06/08 03:45:45;;;;;;;6.78;5.78;;;;;;;11.36;76.13;93095.53;5092874;28;20689;-38
2022/06/08 03:48:11;;;;;;;15.52;6.72;;;;;;;11.38;76.60;93092.94;5091666;28;20051;-38
2022/06/08 03:50:40;;;;;;;10.02;7.05;;;;;;;11.49;77.04;93098.03;5091901;28;20051;-38
2022/06/08 03:53:10;;;;;;;14.38;6.90;;;;;;;11.29;77.12;93072.16;5092666;28;20511;-38
2022/06/08 03:55:35;;;;;;;26.45;6.93;;;;;;;11.39;77.13;93089.59;5108732;28;20479;-37
2022/06/08 03:58:02;;;;;;;7.68;5.95;;;;;;;11.27;77.44;93096.88;5112931;28;20123;-37
2022/06/08 04:00:28;;;;;;;8.50;5.55;;;;;;;11.35;77.76;93088.53;5113042;28;20433;-38
2022/06/08 04:02:54;;;;;;;8.52;5.50;;;;;;;11.32;77.96;93084.88;5110712;28;20015;-38
2022/06/08 04:05:20;;;;;;;5.95;5.30;;;;;;;11.45;78.19;93083.88;5111518;28;20023;-38
2022/06/08 04:07:46;;;;;;;4.80;4.30;;;;;;;11.44;77.91;93090.69;5112816;28;20077;-38
2022/06/08 04:10:12;;;;;;;4.75;4.25;;;;;;;11.41;79.06;93091.81;5113049;28;20023;-37
2022/06/08 04:12:38;;;;;;;4.88;4.18;;;;;;;11.43;78.76;93087.16;5109487;28;20024;-38
2022/06/08 04:15:04;;;;;;;8.13;4.20;;;;;;;11.52;79.44;93088.59;5092218;28;20539;-38
2022/06/08 04:17:29;;;;;;;5.07;4.57;;;;;;;11.69;78.74;93080.41;5091949;28;20035;-37
2022/06/08 04:19:55;;;;;;;3.72;3.42;;;;;;;11.85;78.26;93078.22;5092486;28;20028;-38
2022/06/08 04:22:21;;;;;;;7.40;3.92;;;;;;;11.91;79.52;93081.53;5092157;28;20428;-38
2022/06/08 04:24:47;;;;;;;4.70;3.35;;;;;;;11.94;79.94;93081.09;5092318;28;20088;-38
2022/06/08 04:27:13;;;;;;;4.15;3.50;;;;;;;11.96;80.14;93075.75;5092345;28;20115;-38
2022/06/08 04:29:40;;;;;;;4.00;3.70;;;;;;;12.07;79.25;93072.50;5092263;28;20020;-38
2022/06/08 04:32:09;;;;;;;5.20;3.85;;;;;;;12.17;78.71;93075.38;5091914;28;20027;-38
2022/06/08 04:34:36;;;;;;;4.70;4.05;;;;;;;12.19;78.71;93076.25;5092114;28;20028;-38
2022/06/08 04:37:01;;;;;;;4.57;3.92;;;;;;;12.31;78.58;93070.97;5092120;28;20406;-38
2022/06/08 04:39:27;;;;;;;5.60;4.82;;;;;;;12.46;78.64;93068.06;5091777;28;20050;-38
2022/06/08 04:41:52;;;;;;;6.07;4.40;;;;;;;12.65;78.77;93068.22;5092056;28;20035;-39
2022/06/08 04:44:18;;;;;;;22.85;13.88;;;;;;;12.76;78.28;93067.72;5090731;28;20026;-39
2022/06/08 04:46:43;;;;;;;17.20;11.98;;;;;;;12.85;77.86;93064.28;5091527;28;20012;-38
2022/06/08 04:49:09;;;;;;;31.55;18.77;;;;;;;12.92;77.74;93069.00;5091662;28;20040;-39
2022/06/08 04:51:34;;;;;;;30.63;20.30;;;;;;;12.93;76.91;93059.38;5105346;28;20085;-38
2022/06/08 04:54:00;;;;;;;22.70;13.73;;;;;;;13.04;77.37;93068.50;5112236;28;20425;-38
2022/06/08 04:56:25;;;;;;;15.13;10.57;;;;;;;13.13;77.37;93076.13;5112118;28;20480;-38
2022/06/08 04:58:54;;;;;;;21.33;11.82;;;;;;;13.20;78.11;93073.28;5112090;27;20057;-38
2022/06/08 05:01:20;;;;;;;24.13;14.18;;;;;;;13.23;78.02;93069.34;5111843;28;20070;-37
2022/06/08 05:03:45;;;;;;;18.20;12.95;;;;;;;13.36;78.11;93059.94;5111712;28;20027;-37
2022/06/08 05:06:11;;;;;;;14.48;10.80;;;;;;;13.44;78.24;93061.31;5111613;28;20069;-38
2022/06/08 05:08:36;;;;;;;11.35;8.35;;;;;;;13.58;78.87;93054.03;5111559;28;20038;-38
2022/06/08 05:11:04;;;;;;;11.57;8.35;;;;;;;13.76;78.43;93048.41;5111552;28;20024;-38
2022/06/08 05:13:30;;;;;;;11.43;7.18;;;;;;;13.90;77.43;93046.72;5111455;28;20161;-38
2022/06/08 05:15:55;;;;;;;7.93;5.32;;;;;;;13.98;77.17;93044.53;5111792;27;20020;-38
2022/06/08 05:18:22;;;;;;;5.05;4.43;;;;;;;13.99;76.33;93034.91;5111426;28;20577;-38
2022/06/08 05:20:48;;;;;;;5.43;4.53;;;;;;;14.20;76.23;93044.16;5111428;28;20098;-38
2022/06/08 05:23:19;;;;;;;6.53;4.00;;;;;;;14.23;75.25;93047.78;5111583;28;20027;-38
2022/06/08 05:25:45;;;;;;;4.85;4.00;;;;;;;14.34;75.50;93041.69;5111225;28;20030;-37
2022/06/08 05:28:13;;;;;;;4.53;3.88;;;;;;;14.46;72.98;93047.41;5111244;28;20027;-38
2022/06/08 05:30:39;;;;;;;5.75;4.03;;;;;;;14.60;72.60;93045.66;5111475;28;20026;-39
2022/06/08 05:33:05;;;;;;;4.85;3.70;;;;;;;14.66;73.68;93046.84;5111240;28;20528;-38
2022/06/08 05:35:31;;;;;;;5.03;4.20;;;;;;;14.72;73.53;93043.78;5111417;28;20016;-37
2022/06/08 05:37:56;;;;;;;7.35;4.45;;;;;;;14.79;73.51;93049.16;5111397;28;20039;-38
2022/06/08 05:40:23;;;;;;;5.15;4.65;;;;;;;14.82;73.62;93042.44;5111032;28;20073;-38
2022/06/08 05:42:49;;;;;;;5.97;5.07;;;;;;;14.93;72.09;93052.97;5111017;28;20122;-38
2022/06/08 05:45:18;;;;;;;8.55;4.88;;;;;;;15.07;71.89;93048.41;5110885;28;20063;-38
2022/06/08 05:47:44;;;;;;;7.30;4.72;;;;;;;15.16;72.02;93042.09;5097816;28;20420;-38
2022/06/08 05:50:10;;;;;;;5.13;4.25;;;;;;;15.27;72.99;93045.59;5090588;28;20035;-38
2022/06/08 05:52:35;;;;;;;4.90;4.40;;;;;;;15.35;73.49;93051.72;5090698;28;20028;-38
2022/06/08 05:55:00;;;;;;;17.98;4.43;;;;;;;15.42;72.17;93048.75;5090518;28;20031;-38
2022/06/08 05:57:26;;;;;;;4.80;3.67;;;;;;;15.46;72.29;93045.59;5090406;28;20038;-38
2022/06/08 05:59:51;;;;;;;3.65;3.33;;;;;;;15.50;72.05;93045.84;5090717;28;20031;-38
2022/06/08 06:02:17;;;;;;;3.10;2.90;;;;;;;15.63;70.05;93048.16;5090381;28;20040;-38
2022/06/08 06:04:43;;;;;;;5.65;3.97;;;;;;;15.70;71.12;93041.69;5090577;28;20035;-38
2022/06/08 06:07:09;;;;;;;3.80;3.22;;;;;;;15.88;67.55;93040.88;5090595;28;20463;-38
2022/06/08 06:09:35;;;;;;;5.80;3.17;;;;;;;15.83;68.45;93035.63;5090331;28;20023;-38
2022/06/08 06:12:00;;;;;;;12.82;2.90;;;;;;;15.98;66.75;93037.31;5090292;28;20077;-38
2022/06/08 06:14:26;;;;;;;4.65;2.72;;;;;;;16.13;64.26;93034.88;5107036;28;20031;-38
2022/06/08 06:16:53;;;;;;;5.20;3.03;;;;;;;16.21;65.28;93032.63;5110840;28;20047;-38
2022/06/08 06:19:18;;;;;;;3.78;2.88;;;;;;;16.30;64.88;93037.41;5110448;28;20053;-38
2022/06/08 06:21:44;;;;;;;4.07;2.72;;;;;;;16.38;66.48;93037.94;5110605;28;20528;-38
2022/06/08 06:24:09;;;;;;;5.13;2.53;;;;;;;16.43;66.96;93036.88;5110590;28;20051;-38
2022/06/08 06:26:35;;;;;;;3.22;2.63;;;;;;;16.49;64.41;93025.41;5110373;28;20028;-38
2022/06/08 06:29:00;;;;;;;2.92;2.60;;;;;;;16.64;65.36;93031.31;5110853;28;20027;-38
2022/06/08 06:31:30;;;;;;;11.70;3.03;;;;;;;16.78;65.00;93033.56;5110663;28;20027;-38
2022/06/08 06:33:56;;;;;;;2.60;2.40;;;;;;;16.98;64.35;93027.22;5109235;28;20023;-38
2022/06/08 06:36:22;;;;;;;4.28;2.70;;;;;;;17.30;59.90;93022.94;5110463;28;20030;-38
2022/06/08 06:38:47;;;;;;;3.58;2.50;;;;;;;17.40;62.13;93023.56;5110408;28;20019;-38
2022/06/08 06:41:15;;;;;;;3.00;2.70;;;;;;;17.63;59.99;93026.41;5110383;28;20053;-38
2022/06/08 06:43:41;;;;;;;2.90;2.60;;;;;;;17.55;59.86;92994.50;5099795;28;20023;-38
2022/06/08 06:46:11;;;;;;;2.30;2.13;;;;;;;17.95;59.46;93016.50;5090186;28;20024;-38
2022/06/08 06:48:36;;;;;;;2.40;2.20;;;;;;;18.04;58.91;93007.25;5089903;28;20027;-39
2022/06/08 06:51:03;;;;;;;3.78;2.20;;;;;;;18.16;58.63;93008.69;5089944;28;20047;-38
2022/06/08 06:53:29;;;;;;;3.88;2.50;;;;;;;18.17;59.14;93015.00;5089906;28;20023;-38
2022/06/08 06:55:55;;;;;;;8.27;3.45;;;;;;;18.22;58.29;93016.69;5089850;28;20012;-38
2022/06/08 06:58:20;;;;;;;2.08;1.98;;;;;;;18.39;58.76;93016.31;5089865;28;20041;-38
2022/06/08 07:00:46;;;;;;;5.20;2.15;;;;;;;18.46;58.59;93018.16;5090066;28;20099;-38
2022/06/08 07:03:12;;;;;;;2.78;2.08;;;;;;;18.69;56.42;93015.28;5089834;28;20031;-39
2022/06/08 07:05:38;;;;;;;4.15;2.53;;;;;;;18.84;57.08;93017.53;5089677;28;20025;-38
2022/06/08 07:08:04;;;;;;;2.65;2.15;;;;;;;19.26;54.46;93022.00;5090814;28;20024;-39
2022/06/08 07:10:29;;;;;;;2.67;2.10;;;;;;;19.85;53.26;93030.78;5093825;28;20050;-39
2022/06/08 07:12:55;;;;;;;2.22;1.88;;;;;;;20.68;49.63;93022.50;5097438;28;20023;-39
2022/06/08 07:15:23;;;;;;;3.08;1.65;;;;;;;21.82;45.95;93016.13;5114141;28;20024;-39
2022/06/08 07:17:49;;;;;;;1.52;1.42;;;;;;;22.80;44.38;93018.31;5113709;28;20044;-39
2022/06/08 07:20:15;;;;;;;3.17;1.45;;;;;;;24.03;41.77;93012.66;5113692;28;20035;-39
2022/06/08 07:22:41;;;;;;;1.85;1.52;;;;;;;25.35;40.02;93013.81;5114040;28;20030;-39
2022/06/08 07:25:08;;;;;;;2.63;1.90;;;;;;;26.45;37.12;93024.28;5113848;27;20038;-39
2022/06/08 07:27:35;;;;;;;6.90;1.63;;;;;;;27.76;34.84;93019.25;5113621;28;20058;-40
2022/06/08 07:30:02;;;;;;;2.13;1.58;;;;;;;29.17;32.26;93016.59;5113611;28;20023;-39
2022/06/08 07:32:28;;;;;;;1.50;1.40;;;;;;;30.56;31.53;93016.63;5113465;28;20493;-39
2022/06/08 07:34:53;;;;;;;4.07;1.60;;;;;;;31.63;28.53;93006.41;5113452;28;20035;-40
2022/06/08 07:37:19;;;;;;;3.15;1.40;;;;;;;32.34;27.39;93013.38;5113638;28;20023;-40
2022/06/08 07:39:44;;;;;;;3.33;1.58;;;;;;;32.94;25.80;93013.00;5104501;28;20035;-40
2022/06/08 07:42:09;;;;;;;1.95;1.48;;;;;;;33.84;26.14;93011.75;5093196;28;20508;-40
2022/06/08 07:44:35;;;;;;;3.10;1.52;;;;;;;34.79;24.89;93015.97;5092733;28;20020;-40
2022/06/08 07:47:00;;;;;;;4.15;1.20;;;;;;;35.54;24.89;93009.91;5092857;28;20059;-40
2022/06/08 07:49:42;;;;;;;1.20;1.10;;;;;;;36.20;23.85;93017.31;5092984;28;20024;-40
2022/06/08 07:52:17;;;;;;;2.50;1.30;;;;;;;36.27;21.73;93012.94;5093134;28;20086;-37
2022/06/08 07:54:43;;;;;;;2.92;1.35;;;;;;;36.90;21.55;93021.69;5093039;28;20028;-37
2022/06/08 07:57:14;;;;;;;1.50;1.33;;;;;;;37.14;20.67;93015.63;5092709;28;20039;-38
2022/06/08 07:59:40;;;;;;;1.75;1.40;;;;;;;35.56;22.42;93019.19;5092649;28;20028;-40
2022/06/08 08:02:07;;;;;;;3.58;1.60;;;;;;;33.77;24.21;93013.91;5092544;28;20111;-39
2022/06/08 08:04:34;;;;;;;1.30;1.20;;;;;;;32.84;26.52;93024.38;5092492;28;20039;-40
2022/06/08 08:06:59;;;;;;;1.52;1.30;;;;;;;32.04;27.73;93033.19;5092513;28;20035;-39
2022/06/08 08:09:25;;;;;;;2.17;1.50;;;;;;;30.82;29.33;93027.63;5092340;28;20020;-39
2022/06/08 08:11:52;;;;;;;1.60;1.50;;;;;;;29.63;31.26;93037.28;5092447;28;20031;-39
2022/06/08 08:14:20;;;;;;;3.08;1.67;;;;;;;29.66;31.23;93035.91;5091924;28;20024;-39
2022/06/08 08:16:47;;;;;;;1.48;1.38;;;;;;;29.60;31.45;93027.28;5092307;28;20094;-39
2022/06/08 08:19:16;;;;;;;1.70;1.60;;;;;;;30.28;32.05;93035.44;5091895;28;20533;-39
2022/06/08 08:21:41;;;;;;;2.95;1.67;;;;;;;31.95;29.39;93025.97;5091534;28;20028;-40
2022/06/08 08:24:07;;;;;;;1.38;1.27;;;;;;;33.55;27.38;93028.19;5091670;28;20101;-40
2022/06/08 08:26:33;;;;;;;2.70;1.38;;;;;;;34.84;25.76;93026.00;5092087;28;20035;-40
2022/06/08 08:28:58;;;;;;;2.45;1.60;;;;;;;35.69;21.91;93026.28;5092037;28;20519;-39
2022/06/08 08:31:26;;;;;;;2.10;1.58;;;;;;;36.47;21.40;93019.22;5092213;28;20052;-40
2022/06/08 08:33:51;;;;;;;3.05;1.40;;;;;;;37.12;22.48;93027.88;5092308;28;20445;-40
2022/06/08 08:36:18;;;;;;;1.33;1.23;;;;;;;37.54;19.76;93023.75;5103229;28;20081;-39
2022/06/08 08:38:45;;;;;;;1.27;1.17;;;;;;;37.86;20.29;93029.06;5112522;28;20046;-40
2022/06/08 08:43:58;;;;;;;1.30;0.98;;;;;;;37.31;20.06;93022.63;5111405;28;20038;-39
2022/06/08 08:46:29;;;;;;;2.85;0.95;;;;;;;38.04;18.99;93028.06;5112004;28;20023;-40
2022/06/08 08:49:04;;;;;;;2.88;1.08;;;;;;;38.29;19.31;93019.78;5112017;28;20039;-39
2022/06/08 08:51:41;;;;;;;1.98;0.75;;;;;;;37.02;18.72;93021.53;5110772;28;20042;-39
2022/06/08 08:54:30;;;;;;;4.05;1.30;;;;;;;36.06;21.33;93020.31;5111920;28;20035;-39
2022/06/08 08:57:18;;;;;;;1.15;1.05;;;;;;;36.54;20.52;93014.13;5112157;28;20038;-39
2022/06/08 08:59:45;;;;;;;;;;;;;;;37.00;19.52;93010.03;5112278;28;20032;-40
2022/06/08 09:03:14;;;;;;;2.25;1.45;;;;;;;37.32;21.36;93003.19;5112066;28;19908;-40
2022/06/08 09:05:11;;;;;;;2.97;1.30;;;;;;;37.41;19.46;92993.69;5110642;28;20488;-39
2022/06/08 09:07:37;;;;;;;2.17;1.20;;;;;;;36.18;21.79;93000.81;5111919;28;20023;-41
2022/06/08 09:10:03;;;;;;;3.38;1.58;;;;;;;36.03;21.67;93001.66;5112031;27;20446;-39
2022/06/08 09:12:29;;;;;;;1.60;1.20;;;;;;;36.62;21.61;92999.69;5111430;28;20030;-39
2022/06/08 09:14:59;;;;;;;1.73;1.10;;;;;;;37.38;21.93;93000.94;5111540;28;20409;-40
2022/06/08 09:17:39;;;;;;;1.13;1.02;;;;;;;37.91;21.03;93004.50;5111295;28;20424;-38
2022/06/08 09:20:28;;;;;;;4.50;1.52;;;;;;;38.70;20.94;93005.34;5111792;28;20027;-37
2022/06/08 09:22:56;;;;;;;1.98;1.30;;;;;;;39.10;19.26;93002.38;5111386;28;20038;-37
2022/06/08 09:25:30;;;;;;;1.95;1.20;;;;;;;39.42;18.25;93000.31;5111569;28;20023;-38
2022/06/08 09:27:58;;;;;;;4.35;1.58;;;;;;;39.97;19.67;92991.84;5111635;28;20407;-37
2022/06/08 09:30:29;;;;;;;1.08;1.08;;;;;;;40.06;18.99;92987.31;5110938;28;20580;-37
2022/06/08 09:33:17;;;;;;;2.63;1.27;;;;;;;40.34;18.28;92980.81;5096604;28;20089;-38
2022/06/08 09:35:53;;;;;;;;;;;;;;;40.34;17.97;92992.38;5091389;28;20031;-37
2022/06/08 09:38:21;;;;;;;1.42;1.10;;;;;;;40.81;17.31;92975.22;5090744;28;19908;-41
2022/06/08 09:41:13;;;;;;;;;;;;;;;40.83;17.17;92981.00;5091575;28;20038;-37
2022/06/08 09:43:49;;;;;;;3.50;1.30;;;;;;;40.91;18.40;92979.34;5088545;28;19947;-37
2022/06/08 09:53:11;;;;;;;2.10;0.90;;;;;;;41.33;16.83;92960.75;5086167;28;20105;-37
2022/06/08 09:56:04;;;;;;;1.88;1.52;;;;;;;41.71;17.97;92976.31;5090830;28;20028;-38
2022/06/08 09:58:40;;;;;;;1.40;1.00;;;;;;;41.73;16.89;92961.75;5090490;28;20038;-37
2022/06/08 10:01:15;;;;;;;1.42;1.30;;;;;;;41.72;16.89;92961.03;5089246;28;20032;-37
2022/06/08 10:04:10;;;;;;;1.33;1.13;;;;;;;41.91;16.77;92958.28;5089632;28;20085;-38
2022/06/08 10:06:45;;;;;;;1.33;1.15;;;;;;;42.00;15.84;92959.41;5090395;28;20039;-38
2022/06/08 10:09:16;;;;;;;3.55;1.42;;;;;;;41.99;17.35;92963.81;5090734;28;20080;-40
2022/06/08 10:12:01;;;;;;;4.82;1.25;;;;;;;41.49;17.08;92957.38;5090384;28;20027;-37
2022/06/08 10:14:44;;;;;;;1.60;1.27;;;;;;;39.63;17.84;92949.28;5107170;28;20024;-37
2022/06/08 10:17:17;;;;;;;3.17;1.42;;;;;;;39.84;19.94;92956.72;5109755;28;20039;-37
2022/06/08 10:20:06;;;;;;;1.40;1.30;;;;;;;39.95;19.73;92943.44;5109363;28;20075;-38
2022/06/08 10:22:38;;;;;;;1.40;1.30;;;;;;;40.64;18.67;92947.50;5110660;28;20770;-39
2022/06/08 10:25:12;;;;;;;2.85;1.20;;;;;;;41.31;18.27;92941.25;5109558;28;20055;-37
2022/06/08 10:27:54;;;;;;;2.88;1.10;;;;;;;41.51;19.45;92943.53;5107536;28;20088;-37
2022/06/08 10:30:31;;;;;;;1.90;0.90;;;;;;;41.50;17.12;92939.22;5090123;28;20032;-37
2022/06/08 10:32:59;;;;;;;;;;;;;;;41.13;17.59;92941.75;5089879;28;20040;-40
2022/06/08 10:35:35;;;;;;;1.58;1.20;;;;;;;39.64;17.35;92939.13;5089179;28;19998;-37
2022/06/08 10:38:02;;;;;;;2.90;1.60;;;;;;;37.89;19.09;92915.19;5088893;28;20111;-37
2022/06/08 10:40:36;;;;;;;1.50;1.40;;;;;;;36.60;21.27;92933.53;5088904;28;20060;-39
2022/06/08 10:43:03;;;;;;;2.28;1.40;;;;;;;35.17;21.51;92934.75;5092906;28;20082;-39
2022/06/08 10:45:35;;;;;;;3.97;1.70;;;;;;;33.73;23.56;92935.88;5093937;28;20509;-39
2022/06/08 10:48:03;;;;;;;1.55;1.42;;;;;;;32.55;27.46;92928.50;5094322;28;20031;-39
2022/06/08 10:50:35;;;;;;;2.20;2.00;;;;;;;32.00;27.17;92931.06;5093879;28;20031;-39
2022/06/08 10:56:34;;;;;;;1.35;1.25;;;;;;;31.47;26.96;92926.38;5094188;28;20047;-39
2022/06/08 10:59:03;;;;;;;2.45;1.60;;;;;;;31.08;27.75;92922.44;5094115;28;20054;-39
2022/06/08 11:01:53;;;;;;;2.70;2.00;;;;;;;30.70;30.50;92924.91;5093978;28;20028;-39
2022/06/08 11:04:34;;;;;;;5.90;1.80;;;;;;;30.16;29.53;92924.22;5093954;28;20406;-39
2022/06/08 11:07:10;;;;;;;2.25;1.50;;;;;;;29.68;30.52;92922.13;5093585;28;20036;-38
2022/06/08 11:09:36;;;;;;;1.83;1.60;;;;;;;29.49;30.40;92914.72;5092383;28;20493;-39
2022/06/08 11:12:12;;;;;;;1.70;1.60;;;;;;;29.32;33.30;92907.38;5093587;28;20057;-38
2022/06/08 11:14:43;;;;;;;4.75;1.88;;;;;;;29.77;32.83;92911.59;5112300;28;20115;-39
2022/06/08 11:17:17;;;;;;;2.80;2.20;;;;;;;30.14;32.84;92907.84;5113762;28;20028;-39
2022/06/08 11:19:44;;;;;;;2.50;1.90;;;;;;;30.02;32.33;92909.81;5112541;28;20538;-40
2022/06/08 11:22:15;;;;;;;4.18;1.92;;;;;;;29.37;33.94;92922.38;5112546;28;20515;-39
2022/06/08 11:24:46;;;;;;;2.00;1.80;;;;;;;29.19;34.78;92925.63;5104101;28;20469;-39
2022/06/08 11:27:14;;;;;;;1.92;1.83;;;;;;;29.04;36.14;92924.63;5093619;28;20035;-39
2022/06/08 11:29:42;;;;;;;2.30;2.10;;;;;;;29.04;36.04;92918.94;5093198;28;20032;-39
2022/06/08 11:32:28;;;;;;;4.93;2.00;;;;;;;28.97;35.97;92916.69;5093197;28;20100;-39
2022/06/08 11:35:15;;;;;;;2.75;2.00;;;;;;;28.81;33.71;92905.75;5092012;28;20127;-39
2022/06/08 11:37:57;;;;;;;2.88;1.88;;;;;;;28.31;36.13;92902.69;5093356;28;20027;-39
2022/06/08 11:40:29;;;;;;;2.20;2.00;;;;;;;27.94;36.96;92899.78;5092186;28;20035;-38
2022/06/08 11:43:26;;;;;;;3.65;2.17;;;;;;;27.96;36.69;92897.66;5091754;28;20524;-39
2022/06/08 11:45:55;;;;;;;8.02;2.17;;;;;;;27.73;38.76;92893.66;5092916;28;20118;-38
2022/06/08 11:48:23;;;;;;;3.30;2.20;;;;;;;27.73;37.54;92893.66;5091582;28;20110;-39
2022/06/08 11:50:50;;;;;;;2.72;2.10;;;;;;;28.11;38.15;92890.91;5092797;28;20519;-38
2022/06/08 11:53:20;;;;;;;3.00;2.13;;;;;;;28.36;37.18;92887.16;5092255;28;20107;-38
2022/06/08 11:56:07;;;;;;;2.03;1.83;;;;;;;28.72;37.11;92880.75;5092750;28;20028;-39
2022/06/08 11:58:34;;;;;;;2.20;2.00;;;;;;;28.78;37.20;92881.56;5093052;28;20173;-39
2022/06/08 12:01:06;;;;;;;1.88;1.77;;;;;;;28.65;35.76;92882.75;5091678;28;20031;-39
2022/06/08 12:03:42;;;;;;;2.20;1.95;;;;;;;28.58;35.10;92881.19;5091697;28;20030;-39
2022/06/08 12:06:13;;;;;;;2.20;1.70;;;;;;;28.48;35.43;92880.97;5092706;28;20024;-40
2022/06/08 12:08:50;;;;;;;4.57;1.92;;;;;;;28.39;37.71;92876.56;5092711;28;20409;-39